createdAt,value
2018-03-26T00:00:44.156Z,46.75
2018-03-26T00:03:12.459Z,44.85
2018-03-26T00:05:40.599Z,45.00
2018-03-26T00:08:08.835Z,47.13
2018-03-26T00:10:36.999Z,47.50
2018-03-26T00:13:05.226Z,56.05
2018-03-26T00:15:33.354Z,44.97
2018-03-26T00:18:01.589Z,49.85
2018-03-26T00:20:29.819Z,46.85
2018-03-26T00:22:58.018Z,47.15
2018-03-26T00:25:26.216Z,48.08
2018-03-26T00:27:54.396Z,49.05
2018-03-26T00:30:22.396Z,45.58
2018-03-26T00:32:51.304Z,45.85
2018-03-26T00:35:19.489Z,50.35
2018-03-26T00:37:47.676Z,43.25
2018-03-26T00:40:16.379Z,45.33
2018-03-26T00:42:44.604Z,52.70
2018-03-26T00:45:12.793Z,45.90
2018-03-26T00:47:40.981Z,43.33
2018-03-26T00:50:09.175Z,42.17
2018-03-26T00:52:37.256Z,45.88
2018-03-26T00:55:05.567Z,53.00
2018-03-26T00:57:33.578Z,44.75
2018-03-26T01:00:02.767Z,44.10
2018-03-26T01:02:31.052Z,50.30
2018-03-26T01:04:59.294Z,51.40
2018-03-26T01:07:27.676Z,49.00
2018-03-26T01:09:56.118Z,48.55
2018-03-26T01:12:24.255Z,55.25
2018-03-26T01:14:52.658Z,47.10
2018-03-26T01:17:21.759Z,44.38
2018-03-26T01:19:49.960Z,52.33
2018-03-26T01:22:18.058Z,49.70
2018-03-26T01:24:46.214Z,58.05
2018-03-26T01:27:14.383Z,50.75
2018-03-26T01:29:42.576Z,51.78
2018-03-26T01:32:10.724Z,50.35
2018-03-26T01:34:39.116Z,48.65
2018-03-26T01:37:07.125Z,48.63
2018-03-26T01:39:35.318Z,43.10
2018-03-26T01:42:04.759Z,42.88
2018-03-26T01:44:33.163Z,51.92
2018-03-26T01:47:01.338Z,51.00
2018-03-26T01:49:29.730Z,52.33
2018-03-26T01:51:57.897Z,53.10
2018-03-26T01:54:26.333Z,49.25
2018-03-26T01:56:54.721Z,44.20
2018-03-26T01:59:23.010Z,51.88
2018-03-26T02:01:51.086Z,52.13
2018-03-26T02:04:19.394Z,41.80
2018-03-26T02:06:47.881Z,49.35
2018-03-26T02:09:16.503Z,43.60
2018-03-26T02:11:44.674Z,45.00
2018-03-26T02:14:12.737Z,48.65
2018-03-26T02:16:40.777Z,45.45
2018-03-26T02:19:09.077Z,45.83
2018-03-26T02:21:37.279Z,46.37
2018-03-26T02:24:05.558Z,52.13
2018-03-26T02:26:33.762Z,54.92
2018-03-26T02:29:03.283Z,49.05
2018-03-26T02:31:31.476Z,48.60
2018-03-26T02:33:59.704Z,44.20
2018-03-26T02:36:27.976Z,44.85
2018-03-26T02:38:56.156Z,50.47
2018-03-26T02:41:24.463Z,45.78
2018-03-26T02:43:52.659Z,53.05
2018-03-26T02:46:20.756Z,52.30
2018-03-26T02:48:48.876Z,49.78
2018-03-26T02:51:17.136Z,49.40
2018-03-26T02:53:45.442Z,48.80
2018-03-26T02:56:13.518Z,50.55
2018-03-26T02:58:41.615Z,58.28
2018-03-26T03:01:09.776Z,49.33
2018-03-26T03:03:38.016Z,51.92
2018-03-26T03:06:06.109Z,46.35
2018-03-26T03:08:34.195Z,51.47
2018-03-26T03:11:02.395Z,49.00
2018-03-26T03:13:30.577Z,54.88
2018-03-26T03:15:58.767Z,52.40
2018-03-26T03:18:26.874Z,56.13
2018-03-26T03:20:55.169Z,46.58
2018-03-26T03:23:23.177Z,64.43
2018-03-26T03:25:51.367Z,51.97
2018-03-26T03:28:20.466Z,51.00
2018-03-26T03:30:48.758Z,54.38
2018-03-26T03:33:17.166Z,53.05
2018-03-26T03:35:45.348Z,50.17
2018-03-26T03:38:13.402Z,53.85
2018-03-26T03:40:41.819Z,54.20
2018-03-26T03:43:10.278Z,47.45
2018-03-26T03:45:38.550Z,54.22
2018-03-26T03:48:07.197Z,50.40
2018-03-26T03:50:35.556Z,53.80
2018-03-26T03:53:03.577Z,51.33
2018-03-26T03:55:31.747Z,59.85
2018-03-26T03:57:59.939Z,60.92
2018-03-26T04:00:29.182Z,56.35
2018-03-26T04:02:57.556Z,51.88
2018-03-26T04:05:25.879Z,57.85
2018-03-26T04:07:55.134Z,64.78
2018-03-26T04:10:23.738Z,65.70
2018-03-26T04:12:51.883Z,55.30
2018-03-26T04:15:20.262Z,55.72
2018-03-26T04:17:49.172Z,60.70
2018-03-26T04:20:17.746Z,51.70
2018-03-26T04:22:46.261Z,55.12
2018-03-26T04:25:14.960Z,63.17
2018-03-26T04:27:43.396Z,52.00
2018-03-26T04:30:13.203Z,51.35
2018-03-26T04:32:41.505Z,50.30
2018-03-26T04:35:09.764Z,51.37
2018-03-26T04:37:37.791Z,51.75
2018-03-26T04:40:06.434Z,53.33
2018-03-26T04:42:34.917Z,50.90
2018-03-26T04:45:03.640Z,56.05
2018-03-26T04:47:32.656Z,50.22
2018-03-26T04:50:01.464Z,52.13
2018-03-26T04:52:29.965Z,53.60
2018-03-26T04:54:58.672Z,52.55
2018-03-26T04:57:27.245Z,50.85
2018-03-26T04:59:55.859Z,50.33
2018-03-26T05:02:24.557Z,53.17
2018-03-26T05:04:52.961Z,50.55
2018-03-26T05:07:21.464Z,50.22
2018-03-26T05:09:50.674Z,51.45
2018-03-26T05:12:19.004Z,54.22
2018-03-26T05:14:48.456Z,60.22
2018-03-26T05:17:16.675Z,49.00
2018-03-26T05:19:45.061Z,52.08
2018-03-26T05:22:13.241Z,53.08
2018-03-26T05:24:41.597Z,48.38
2018-03-26T05:27:09.981Z,52.83
2018-03-26T05:29:38.317Z,55.97
2018-03-26T05:32:06.542Z,53.78
2018-03-26T05:34:36.081Z,54.53
2018-03-26T05:37:04.545Z,55.58
2018-03-26T05:39:32.658Z,52.83
2018-03-26T05:42:00.798Z,59.28
2018-03-26T05:44:28.953Z,50.12
2018-03-26T05:46:57.004Z,56.63
2018-03-26T05:49:25.129Z,55.35
2018-03-26T05:51:53.454Z,54.42
2018-03-26T05:54:21.618Z,50.97
2018-03-26T05:56:50.339Z,57.05
2018-03-26T05:59:18.449Z,50.40
2018-03-26T06:01:46.651Z,50.00
2018-03-26T06:04:14.900Z,46.80
2018-03-26T06:06:43.020Z,49.03
2018-03-26T06:09:11.104Z,46.00
2018-03-26T06:11:39.299Z,53.87
2018-03-26T06:14:07.487Z,51.78
2018-03-26T06:16:35.688Z,53.78
2018-03-26T06:19:04.032Z,55.95
2018-03-26T06:21:32.264Z,51.60
2018-03-26T06:24:00.374Z,58.85
2018-03-26T06:26:28.554Z,54.50
2018-03-26T06:28:56.663Z,53.92
2018-03-26T06:31:24.847Z,55.25
2018-03-26T06:33:52.933Z,53.55
2018-03-26T06:36:21.133Z,60.92
2018-03-26T06:38:49.194Z,60.58
2018-03-26T06:41:17.415Z,55.53
2018-03-26T06:43:45.624Z,59.15
2018-03-26T06:46:14.003Z,60.50
2018-03-26T06:48:42.113Z,54.40
2018-03-26T06:51:10.342Z,56.22
2018-03-26T06:53:38.583Z,58.28
2018-03-26T06:56:06.799Z,63.05
2018-03-26T06:58:34.883Z,63.40
2018-03-26T07:01:03.084Z,56.17
2018-03-26T07:03:31.072Z,61.47
2018-03-26T07:05:59.083Z,53.87
2018-03-26T07:08:27.073Z,50.00
2018-03-26T07:10:55.187Z,52.58
2018-03-26T07:13:23.380Z,49.10
2018-03-26T07:15:51.508Z,45.47
2018-03-26T07:18:19.606Z,53.47
2018-03-26T07:20:47.804Z,52.15
2018-03-26T07:23:15.897Z,50.42
2018-03-26T07:25:43.957Z,49.15
2018-03-26T07:28:11.976Z,52.00
2018-03-26T07:30:40.016Z,49.05
2018-03-26T07:33:08.057Z,50.50
2018-03-26T07:35:36.126Z,50.83
2018-03-26T07:38:04.097Z,48.87
2018-03-26T07:40:32.351Z,49.77
2018-03-26T07:43:00.427Z,48.63
2018-03-26T07:45:28.627Z,50.23
2018-03-26T07:47:56.647Z,50.88
2018-03-26T07:50:24.608Z,54.65
2018-03-26T07:52:52.664Z,51.25
2018-03-26T07:55:20.583Z,49.78
2018-03-26T07:57:48.623Z,50.25
2018-03-26T08:00:16.591Z,53.92
2018-03-26T08:02:44.631Z,47.35
2018-03-26T08:05:12.530Z,54.90
2018-03-26T08:07:40.611Z,49.35
2018-03-26T08:10:08.523Z,52.38
2018-03-26T08:12:36.572Z,51.70
2018-03-26T08:15:04.630Z,49.45
2018-03-26T08:17:32.710Z,52.88
2018-03-26T08:20:00.690Z,50.60
2018-03-26T08:22:28.697Z,51.37
2018-03-26T08:24:57.662Z,52.20
2018-03-26T08:27:25.777Z,48.90
2018-03-26T08:29:53.737Z,50.00
2018-03-26T08:32:21.717Z,49.78
2018-03-26T08:34:49.699Z,52.22
2018-03-26T08:37:17.799Z,54.80
2018-03-26T08:39:45.697Z,50.05
2018-03-26T08:42:13.803Z,51.47
2018-03-26T08:44:41.721Z,47.72
2018-03-26T08:47:09.737Z,50.55
2018-03-26T08:49:37.735Z,50.30
2018-03-26T08:52:05.735Z,52.80
2018-03-26T08:54:33.635Z,49.90
2018-03-26T08:57:01.777Z,65.47
2018-03-26T08:59:29.759Z,56.47
2018-03-26T09:01:57.796Z,53.60
2018-03-26T09:04:25.725Z,63.75
2018-03-26T09:06:53.797Z,52.83
2018-03-26T09:09:21.716Z,53.00
2018-03-26T09:11:49.816Z,50.45
2018-03-26T09:14:17.776Z,49.67
2018-03-26T09:16:45.906Z,49.88
2018-03-26T09:19:13.817Z,54.28
2018-03-26T09:21:41.977Z,50.53
2018-03-26T09:24:09.917Z,71.57
2018-03-26T09:26:38.017Z,52.05
2018-03-26T09:29:06.057Z,50.15
2018-03-26T09:31:34.111Z,52.17
2018-03-26T09:34:02.021Z,51.50
2018-03-26T09:36:30.003Z,46.50
2018-03-26T09:38:57.982Z,47.05
2018-03-26T09:41:26.057Z,47.90
2018-03-26T09:43:54.052Z,51.80
2018-03-26T09:46:22.112Z,44.90
2018-03-26T09:48:50.097Z,49.45
2018-03-26T09:51:19.157Z,49.40
2018-03-26T09:53:47.157Z,49.80
2018-03-26T09:56:15.136Z,54.13
2018-03-26T09:58:43.237Z,47.25
2018-03-26T10:01:11.156Z,45.83
2018-03-26T10:03:39.168Z,56.30
2018-03-26T10:06:07.145Z,54.83
2018-03-26T10:08:35.245Z,48.20
2018-03-26T10:11:03.179Z,57.67
2018-03-26T10:13:31.228Z,57.10
2018-03-26T10:15:59.188Z,51.50
2018-03-26T10:18:27.203Z,51.15
2018-03-26T10:20:55.161Z,49.22
2018-03-26T10:23:23.198Z,50.83
2018-03-26T10:25:51.178Z,47.25
2018-03-26T10:28:19.197Z,51.25
2018-03-26T10:30:47.120Z,56.17
2018-03-26T10:33:15.174Z,47.13
2018-03-26T10:35:43.053Z,131.23
2018-03-26T10:38:11.113Z,56.88
2018-03-26T10:40:39.096Z,44.20
2018-03-26T10:43:07.097Z,50.17
2018-03-26T10:45:34.985Z,49.30
2018-03-26T10:48:02.988Z,49.00
2018-03-26T10:50:30.928Z,52.15
2018-03-26T10:52:58.988Z,50.05
2018-03-26T10:55:26.868Z,47.45
2018-03-26T10:57:55.008Z,50.38
2018-03-26T11:00:22.948Z,51.13
2018-03-26T11:02:51.068Z,46.20
2018-03-26T11:05:19.085Z,47.58
2018-03-26T11:07:47.116Z,42.90
2018-03-26T11:10:15.096Z,45.85
2018-03-26T11:12:43.100Z,48.25
2018-03-26T11:15:11.071Z,45.28
2018-03-26T11:17:39.090Z,47.97
2018-03-26T11:20:07.009Z,48.33
2018-03-26T11:22:35.095Z,47.75
2018-03-26T11:25:03.051Z,47.58
2018-03-26T11:27:31.149Z,44.08
2018-03-26T11:29:59.110Z,52.58
2018-03-26T11:32:27.109Z,43.38
2018-03-26T11:34:55.082Z,47.90
2018-03-26T11:37:23.161Z,56.67
2018-03-26T11:39:51.112Z,51.60
2018-03-26T11:42:19.175Z,49.80
2018-03-26T11:44:47.063Z,44.05
2018-03-26T11:47:15.162Z,46.88
2018-03-26T11:49:43.193Z,50.58
2018-03-26T11:52:11.401Z,49.95
2018-03-26T11:54:39.484Z,48.80
2018-03-26T11:57:07.484Z,48.10
2018-03-26T11:59:36.014Z,49.03
2018-03-26T12:02:03.998Z,47.58
2018-03-26T12:04:32.055Z,48.85
2018-03-26T12:07:00.035Z,46.70
2018-03-26T12:09:28.114Z,49.78
2018-03-26T12:11:56.076Z,45.42
2018-03-26T12:14:24.174Z,51.17
2018-03-26T12:16:52.117Z,50.88
2018-03-26T12:19:20.163Z,47.88
2018-03-26T12:21:48.070Z,48.75
2018-03-26T12:24:16.150Z,49.53
2018-03-26T12:26:44.073Z,51.70
2018-03-26T12:29:12.130Z,50.70
2018-03-26T12:31:40.051Z,48.80
2018-03-26T12:34:08.078Z,48.90
2018-03-26T12:36:36.039Z,50.33
2018-03-26T12:39:04.089Z,49.13
2018-03-26T12:41:32.059Z,52.92
2018-03-26T12:44:00.063Z,51.45
2018-03-26T12:46:27.928Z,50.70
2018-03-26T12:48:55.968Z,46.40
2018-03-26T12:51:23.988Z,60.78
2018-03-26T12:53:52.006Z,46.28
2018-03-26T12:56:19.966Z,45.88
2018-03-26T12:58:47.986Z,44.67
2018-03-26T13:01:15.907Z,51.17
2018-03-26T13:03:44.048Z,45.97
2018-03-26T13:06:11.974Z,50.35
2018-03-26T13:08:39.983Z,46.53
2018-03-26T13:11:07.988Z,50.35
2018-03-26T13:13:36.052Z,46.25
2018-03-26T13:16:03.992Z,51.53
2018-03-26T13:18:32.032Z,45.80
2018-03-26T13:21:00.034Z,50.72
2018-03-26T13:23:28.039Z,45.78
2018-03-26T13:25:56.043Z,54.53
2018-03-26T13:28:24.083Z,47.75
2018-03-26T13:30:52.062Z,44.80
2018-03-26T13:33:20.204Z,44.08
2018-03-26T13:35:48.142Z,42.30
2018-03-26T13:38:16.297Z,42.67
2018-03-26T13:40:44.317Z,44.22
2018-03-26T13:43:12.457Z,40.78
2018-03-26T13:45:40.417Z,44.35
2018-03-26T13:48:08.526Z,52.55
2018-03-26T13:50:36.503Z,45.63
2018-03-26T13:53:04.603Z,46.40
2018-03-26T13:55:32.554Z,42.53
2018-03-26T13:58:00.541Z,52.62
2018-03-26T14:00:28.479Z,44.03
2018-03-26T14:02:56.431Z,47.90
2018-03-26T14:05:24.521Z,45.92
2018-03-26T14:07:52.473Z,44.55
2018-03-26T14:10:20.522Z,47.28
2018-03-26T14:12:48.501Z,47.33
2018-03-26T14:15:16.524Z,43.87
2018-03-26T14:17:44.516Z,47.25
2018-03-26T14:20:12.560Z,49.83
2018-03-26T14:22:40.841Z,50.35
2018-03-26T14:25:09.025Z,42.28
2018-03-26T14:27:37.002Z,41.15
2018-03-26T14:30:05.171Z,41.90
2018-03-26T14:32:33.130Z,42.90
2018-03-26T14:35:01.149Z,43.00
2018-03-26T14:37:29.166Z,39.03
2018-03-26T14:39:57.224Z,39.97
2018-03-26T14:42:25.206Z,35.13
2018-03-26T14:44:53.284Z,36.50
2018-03-26T14:47:21.224Z,34.08
2018-03-26T14:49:49.292Z,37.40
2018-03-26T14:52:17.284Z,33.60
2018-03-26T14:54:45.504Z,35.40
2018-03-26T14:57:13.604Z,38.40
2018-03-26T14:59:41.785Z,41.72
2018-03-26T15:02:09.830Z,38.63
2018-03-26T15:04:37.984Z,37.40
2018-03-26T15:07:06.064Z,41.20
2018-03-26T15:09:34.264Z,39.33
2018-03-26T15:12:02.364Z,38.22
2018-03-26T15:14:30.545Z,38.42
2018-03-26T15:16:58.656Z,35.72
2018-03-26T15:19:26.844Z,36.83
2018-03-26T15:21:55.037Z,37.03
2018-03-26T15:24:23.237Z,39.05
2018-03-26T15:26:51.528Z,39.22
2018-03-26T15:29:19.703Z,33.70
2018-03-26T15:31:47.703Z,38.45
2018-03-26T15:34:15.902Z,34.63
2018-03-26T15:36:44.002Z,31.45
2018-03-26T15:39:12.202Z,33.67
2018-03-26T15:41:40.691Z,29.20
2018-03-26T15:44:08.815Z,28.90
2018-03-26T15:46:36.776Z,33.30
2018-03-26T15:49:04.960Z,33.55
2018-03-26T15:51:33.054Z,32.08
2018-03-26T15:54:01.259Z,31.70
2018-03-26T15:56:29.340Z,31.95
2018-03-26T15:58:57.540Z,38.85
2018-03-26T16:01:25.646Z,34.08
2018-03-26T16:03:54.039Z,36.15
2018-03-26T16:06:22.219Z,36.00
2018-03-26T16:08:51.959Z,37.95
2018-03-26T16:11:19.940Z,35.08
2018-03-26T16:13:48.339Z,41.80
2018-03-26T16:16:16.539Z,33.03
2018-03-26T16:18:44.620Z,34.15
2018-03-26T16:21:12.729Z,35.90
2018-03-26T16:23:40.819Z,37.67
2018-03-26T16:26:09.019Z,43.17
2018-03-26T16:28:36.959Z,33.70
2018-03-26T16:31:05.087Z,32.17
2018-03-26T16:33:33.179Z,38.95
2018-03-26T16:36:01.379Z,37.30
2018-03-26T16:38:29.560Z,33.40
2018-03-26T16:40:57.766Z,39.00
2018-03-26T16:43:25.964Z,33.08
2018-03-26T16:45:54.144Z,35.40
2018-03-26T16:48:22.246Z,39.92
2018-03-26T16:50:50.445Z,37.00
2018-03-26T16:53:18.624Z,37.72
2018-03-26T16:55:46.824Z,40.88
2018-03-26T16:58:14.926Z,33.65
2018-03-26T17:00:43.111Z,34.92
2018-03-26T17:03:11.311Z,34.05
2018-03-26T17:05:39.512Z,36.13
2018-03-26T17:08:07.593Z,36.05
2018-03-26T17:10:35.792Z,40.50
2018-03-26T17:13:03.886Z,38.80
2018-03-26T17:15:32.071Z,32.25
2018-03-26T17:18:00.165Z,34.28
2018-03-26T17:20:28.458Z,30.35
2018-03-26T17:22:56.551Z,33.45
2018-03-26T17:25:24.751Z,34.70
2018-03-26T17:27:52.847Z,33.70
2018-03-26T17:30:21.049Z,33.70
2018-03-26T17:32:49.132Z,34.75
2018-03-26T17:35:17.331Z,34.15
2018-03-26T17:37:45.529Z,31.85
2018-03-26T17:40:13.707Z,30.05
2018-03-26T17:42:41.808Z,34.25
2018-03-26T17:45:10.008Z,33.65
2018-03-26T17:47:38.187Z,37.15
2018-03-26T17:50:06.387Z,35.40
2018-03-26T17:52:34.391Z,35.83
2018-03-26T17:55:02.667Z,35.72
2018-03-26T17:57:30.720Z,39.28
2018-03-26T17:59:58.887Z,37.80
2018-03-26T18:02:26.948Z,36.90
2018-03-26T18:04:55.147Z,37.50
2018-03-26T18:07:23.347Z,41.15
2018-03-26T18:09:51.527Z,32.15
2018-03-26T18:12:19.727Z,39.20
2018-03-26T18:14:47.825Z,33.50
2018-03-26T18:17:15.925Z,32.55
2018-03-26T18:19:44.094Z,44.22
2018-03-26T18:22:12.205Z,33.90
2018-03-26T18:24:40.386Z,41.25
2018-03-26T18:27:08.579Z,41.40
2018-03-26T18:29:36.777Z,40.60
2018-03-26T18:32:04.979Z,50.35
2018-03-26T18:34:33.078Z,34.50
2018-03-26T18:37:01.169Z,40.25
2018-03-26T18:39:29.351Z,40.53
2018-03-26T18:41:57.409Z,41.10
2018-03-26T18:44:25.405Z,39.83
2018-03-26T18:46:53.625Z,42.70
2018-03-26T18:49:21.820Z,40.15
2018-03-26T18:51:49.920Z,40.75
2018-03-26T18:54:18.099Z,42.97
2018-03-26T18:56:46.411Z,44.17
2018-03-26T18:59:14.495Z,45.10
2018-03-26T19:01:42.593Z,40.00
2018-03-26T19:04:10.791Z,44.78
2018-03-26T19:06:38.967Z,50.00
2018-03-26T19:09:07.083Z,38.80
2018-03-26T19:11:35.263Z,38.00
2018-03-26T19:14:03.355Z,46.47
2018-03-26T19:16:31.557Z,40.63
2018-03-26T19:18:59.755Z,49.85
2018-03-26T19:21:27.936Z,41.65
2018-03-26T19:23:56.040Z,46.97
2018-03-26T19:26:24.155Z,44.25
2018-03-26T19:28:52.116Z,42.38
2018-03-26T19:31:20.315Z,47.47
2018-03-26T19:33:48.516Z,47.62
2018-03-26T19:36:16.816Z,43.10
2018-03-26T19:38:44.995Z,43.13
2018-03-26T19:41:13.096Z,45.47
2018-03-26T19:43:41.115Z,45.28
2018-03-26T19:46:09.144Z,47.03
2018-03-26T19:48:37.098Z,48.92
2018-03-26T19:51:05.075Z,42.45
2018-03-26T19:53:33.244Z,59.25
2018-03-26T19:56:02.457Z,46.25
2018-03-26T19:58:30.556Z,45.40
2018-03-26T20:00:58.543Z,43.38
2018-03-26T20:03:26.644Z,47.85
2018-03-26T20:05:54.836Z,47.47
2018-03-26T20:08:23.037Z,53.25
2018-03-26T20:10:51.104Z,157.68
2018-03-26T20:13:19.158Z,241.93
2018-03-26T20:15:47.395Z,192.98
2018-03-26T20:18:15.495Z,216.75
2018-03-26T20:20:43.677Z,188.77
2018-03-26T20:23:11.898Z,112.93
2018-03-26T20:25:40.080Z,95.78
2018-03-26T20:28:08.176Z,101.05
2018-03-26T20:30:36.256Z,81.95
2018-03-26T20:33:04.355Z,55.30
2018-03-26T20:35:32.556Z,53.08
2018-03-26T20:38:00.736Z,45.72
2018-03-26T20:40:28.837Z,49.78
2018-03-26T20:42:57.036Z,48.92
2018-03-26T20:45:25.115Z,49.45
2018-03-26T20:47:53.315Z,52.55
2018-03-26T20:50:21.419Z,47.35
2018-03-26T20:52:49.616Z,55.38
2018-03-26T20:55:17.696Z,45.12
2018-03-26T20:57:45.815Z,52.13
2018-03-26T21:00:13.876Z,57.60
2018-03-26T21:02:42.075Z,57.42
2018-03-26T21:05:10.163Z,58.45
2018-03-26T21:07:38.356Z,69.05
2018-03-26T21:10:06.466Z,66.95
2018-03-26T21:12:34.656Z,83.68
2018-03-26T21:15:02.736Z,71.90
2018-03-26T21:17:30.935Z,65.80
2018-03-26T21:19:59.021Z,55.03
2018-03-26T21:22:27.119Z,53.20
2018-03-26T21:24:55.216Z,45.15
2018-03-26T21:27:23.396Z,46.72
2018-03-26T21:29:51.596Z,45.60
2018-03-26T21:32:19.637Z,45.03
2018-03-26T21:34:47.576Z,50.47
2018-03-26T21:37:15.715Z,52.10
2018-03-26T21:39:43.599Z,47.35
2018-03-26T21:42:11.715Z,54.67
2018-03-26T21:44:39.720Z,52.50
2018-03-26T21:47:07.755Z,47.90
2018-03-26T21:49:35.681Z,50.17
2018-03-26T21:52:03.736Z,48.92
2018-03-26T21:54:31.716Z,46.08
2018-03-26T21:56:59.736Z,47.65
2018-03-26T21:59:27.656Z,41.42
2018-03-26T22:01:55.736Z,44.00
2018-03-26T22:04:23.690Z,43.85
2018-03-26T22:06:51.792Z,46.22
2018-03-26T22:09:19.908Z,41.83
2018-03-26T22:11:47.961Z,41.42
2018-03-26T22:14:15.881Z,44.13
2018-03-26T22:16:43.965Z,42.15
2018-03-26T22:19:11.900Z,42.65
2018-03-26T22:21:39.963Z,44.58
2018-03-26T22:24:07.958Z,52.20
2018-03-26T22:26:36.047Z,40.92
2018-03-26T22:29:03.959Z,48.33
2018-03-26T22:31:31.940Z,43.30
2018-03-26T22:34:04.844Z,44.90
2018-03-26T22:36:36.528Z,47.42
2018-03-26T22:39:04.716Z,47.60
2018-03-26T22:41:32.797Z,47.88
2018-03-26T22:44:00.992Z,47.13
2018-03-26T22:46:29.096Z,46.78
2018-03-26T22:48:59.823Z,43.33
2018-03-26T22:51:28.055Z,41.55
2018-03-26T22:53:56.245Z,39.22
2018-03-26T22:56:24.573Z,46.85
2018-03-26T22:58:52.627Z,46.60
2018-03-26T23:01:20.729Z,42.92
2018-03-26T23:03:48.826Z,40.65
2018-03-26T23:06:17.125Z,47.33
2018-03-26T23:08:45.304Z,47.60
2018-03-26T23:11:13.405Z,46.95
2018-03-26T23:13:41.640Z,47.95
2018-03-26T23:16:09.595Z,50.50
2018-03-26T23:18:38.576Z,50.70
2018-03-26T23:21:06.786Z,53.58
2018-03-26T23:23:35.093Z,46.40
2018-03-26T23:26:03.163Z,41.13
2018-03-26T23:28:31.376Z,55.40
2018-03-26T23:30:59.464Z,50.97
2018-03-26T23:33:27.663Z,42.17
2018-03-26T23:35:55.848Z,48.15
2018-03-26T23:38:24.044Z,45.08
2018-03-26T23:40:52.187Z,45.35
2018-03-26T23:43:20.434Z,39.80
2018-03-26T23:45:48.728Z,43.83
2018-03-26T23:48:16.929Z,47.62
2018-03-26T23:50:45.023Z,43.15
2018-03-26T23:53:13.204Z,47.50
2018-03-26T23:55:41.295Z,44.38
2018-03-26T23:58:09.406Z,44.53
